createdAt,value
2022-09-27T00:02:25.793Z,99395.75
2022-09-27T00:04:54.045Z,99400.13
2022-09-27T00:07:22.305Z,99403.66
2022-09-27T00:09:50.480Z,99402.81
2022-09-27T00:12:18.583Z,99407.16
2022-09-27T00:14:46.697Z,99400.25
2022-09-27T00:17:16.123Z,99409.97
2022-09-27T00:19:44.521Z,99406.53
2022-09-27T00:22:12.624Z,99412.81
2022-09-27T00:24:40.702Z,99405.97
2022-09-27T00:27:08.847Z,99407.81
2022-09-27T00:29:37.705Z,99403.56
2022-09-27T00:32:05.874Z,99408.81
2022-09-27T00:34:35.513Z,99409.75
2022-09-27T00:37:03.569Z,99404.59
2022-09-27T00:39:31.653Z,99409.00
2022-09-27T00:41:59.769Z,99409.88
2022-09-27T00:45:02.155Z,99407.34
2022-09-27T00:47:37.308Z,99396.97
2022-09-27T00:50:15.589Z,99401.41
2022-09-27T00:52:50.011Z,99397.16
2022-09-27T00:55:22.216Z,99400.72
2022-09-27T00:57:51.610Z,99403.34
2022-09-27T01:00:20.055Z,99406.88
2022-09-27T01:02:52.930Z,99408.69
2022-09-27T01:05:26.155Z,99413.13
2022-09-27T01:07:56.610Z,99411.38
2022-09-27T01:10:26.503Z,99414.81
2022-09-27T01:13:08.182Z,99420.06
2022-09-27T01:15:44.886Z,99417.38
2022-09-27T01:18:25.020Z,99428.69
2022-09-27T01:21:44.882Z,99418.19
2022-09-27T01:24:56.494Z,99415.53
2022-09-27T01:28:06.453Z,99409.50
2022-09-27T01:30:44.864Z,99419.94
2022-09-27T01:33:35.739Z,99422.59
2022-09-27T01:36:21.942Z,99428.66
2022-09-27T01:39:07.107Z,99422.44
2022-09-27T01:41:39.793Z,99418.91
2022-09-27T01:44:18.127Z,99420.56
2022-09-27T01:46:53.680Z,99410.13
2022-09-27T01:49:29.238Z,99413.75
2022-09-27T01:52:01.276Z,99414.75
2022-09-27T01:54:39.124Z,99422.69
2022-09-27T01:57:11.354Z,99416.69
2022-09-27T01:59:46.454Z,99419.41
2022-09-27T02:02:20.171Z,99420.34
2022-09-27T02:04:50.889Z,99410.75
2022-09-27T02:07:24.752Z,99418.59
2022-09-27T02:09:57.834Z,99414.22
2022-09-27T02:12:34.382Z,99414.19
2022-09-27T02:15:08.277Z,99416.84
2022-09-27T02:17:47.794Z,99413.38
2022-09-27T02:20:22.778Z,99415.97
2022-09-27T02:22:57.779Z,99415.94
2022-09-27T02:25:30.488Z,99422.06
2022-09-27T02:28:08.058Z,99416.78
2022-09-27T02:30:36.247Z,99415.00
2022-09-27T02:33:05.811Z,99420.19
2022-09-27T02:35:36.367Z,99430.69
2022-09-27T02:38:07.171Z,99433.34
2022-09-27T02:40:42.571Z,99430.75
2022-09-27T02:43:10.794Z,99429.03
2022-09-27T02:45:53.254Z,99424.69
2022-09-27T02:48:33.049Z,99418.59
2022-09-27T02:51:27.413Z,99419.56
2022-09-27T02:54:09.437Z,99403.00
2022-09-27T02:56:46.258Z,99410.88
2022-09-27T02:59:24.982Z,99399.59
2022-09-27T03:02:11.077Z,99405.72
2022-09-27T03:04:49.017Z,99413.66
2022-09-27T03:07:18.461Z,99413.66
2022-09-27T03:09:49.113Z,99411.88
2022-09-27T03:12:22.607Z,99412.75
2022-09-27T03:14:50.791Z,99425.84
2022-09-27T03:17:18.884Z,99421.44
2022-09-27T03:19:49.743Z,99430.22
2022-09-27T03:22:18.400Z,99432.88
2022-09-27T03:24:46.803Z,99432.00
2022-09-27T03:27:14.911Z,99420.69
2022-09-27T03:29:43.055Z,99414.59
2022-09-27T03:32:11.286Z,99419.00
2022-09-27T03:34:39.416Z,99410.31
2022-09-27T03:37:09.362Z,99407.72
2022-09-27T03:39:37.569Z,99412.09
2022-09-27T03:42:05.925Z,99411.31
2022-09-27T03:44:34.094Z,99406.09
2022-09-27T03:47:02.185Z,99401.81
2022-09-27T03:49:30.343Z,99411.53
2022-09-27T03:51:58.616Z,99398.50
2022-09-27T03:54:28.073Z,99411.69
2022-09-27T03:56:56.173Z,99410.91
2022-09-27T03:59:24.271Z,99403.16
2022-09-27T04:01:52.493Z,99398.03
2022-09-27T04:04:20.650Z,99399.00
2022-09-27T04:06:49.154Z,99399.06
2022-09-27T04:09:17.391Z,99410.44
2022-09-27T04:11:47.079Z,99412.22
2022-09-27T04:14:15.107Z,99409.53
2022-09-27T04:16:43.896Z,99405.13
2022-09-27T04:19:12.480Z,99413.88
2022-09-27T04:21:40.734Z,99414.75
2022-09-27T04:24:08.836Z,99412.97
2022-09-27T04:26:37.423Z,99413.88
2022-09-27T04:29:09.736Z,99422.59
2022-09-27T04:31:38.279Z,99422.66
2022-09-27T04:34:06.581Z,99419.16
2022-09-27T04:36:34.052Z,99418.28
2022-09-27T04:39:07.020Z,99419.13
2022-09-27T04:41:36.032Z,99420.81
2022-09-27T04:44:06.518Z,99416.44
2022-09-27T04:46:35.154Z,99419.88
2022-09-27T04:49:04.221Z,99422.47
2022-09-27T04:51:32.348Z,99424.19
2022-09-27T04:54:00.656Z,99431.13
2022-09-27T04:56:28.770Z,99432.78
2022-09-27T04:58:56.979Z,99438.88
2022-09-27T05:01:26.599Z,99430.16
2022-09-27T05:03:54.812Z,99429.34
2022-09-27T05:06:23.607Z,99425.94
2022-09-27T05:08:51.728Z,99430.34
2022-09-27T05:11:20.018Z,99435.59
2022-09-27T05:13:48.186Z,99430.44
2022-09-27T05:16:17.176Z,99430.34
2022-09-27T05:18:46.794Z,99436.50
2022-09-27T05:21:14.951Z,99440.81
2022-09-27T05:23:45.943Z,99439.91
2022-09-27T05:26:16.086Z,99438.97
2022-09-27T05:28:44.318Z,99433.75
2022-09-27T05:31:13.288Z,99435.47
2022-09-27T05:33:41.880Z,99451.19
2022-09-27T05:36:12.043Z,99465.97
2022-09-27T05:38:41.793Z,99469.44
2022-09-27T05:41:10.158Z,99481.69
2022-09-27T05:43:38.506Z,99477.31
2022-09-27T05:46:06.920Z,99471.22
2022-09-27T05:48:35.411Z,99463.34
2022-09-27T05:51:03.648Z,99467.69
2022-09-27T05:53:33.496Z,99463.34
2022-09-27T05:56:04.164Z,99470.28
2022-09-27T05:58:32.480Z,99463.25
2022-09-27T06:01:00.771Z,99470.22
2022-09-27T06:03:29.039Z,99466.72
2022-09-27T06:05:57.237Z,99464.13
2022-09-27T06:08:25.462Z,99457.13
2022-09-27T06:11:03.140Z,99454.47
2022-09-27T06:13:33.497Z,99459.69
2022-09-27T06:16:02.242Z,99459.69
2022-09-27T06:18:30.559Z,99458.78
2022-09-27T06:21:01.082Z,99453.44
2022-09-27T06:23:29.932Z,99457.72
2022-09-27T06:26:03.515Z,99459.41
2022-09-27T06:28:31.898Z,99466.28
2022-09-27T06:31:01.147Z,99473.19
2022-09-27T06:33:29.910Z,99473.06
2022-09-27T06:35:58.054Z,99473.84
2022-09-27T06:38:26.609Z,99484.28
2022-09-27T06:40:58.005Z,99485.97
2022-09-27T06:43:27.607Z,99486.75
2022-09-27T06:45:55.784Z,99488.47
2022-09-27T06:48:24.987Z,99483.19
2022-09-27T06:50:53.264Z,99487.47
2022-09-27T06:53:21.389Z,99481.25
2022-09-27T06:55:49.758Z,99478.56
2022-09-27T06:58:36.333Z,99492.50
2022-09-27T07:01:05.931Z,99504.75
2022-09-27T07:03:40.107Z,99505.59
2022-09-27T07:06:20.299Z,99509.09
2022-09-27T07:08:53.103Z,99513.47
2022-09-27T07:11:23.318Z,99523.03
2022-09-27T07:13:51.995Z,99519.53
2022-09-27T07:16:21.730Z,99524.78
2022-09-27T07:18:51.091Z,99539.59
2022-09-27T07:21:19.298Z,99532.56
2022-09-27T07:23:47.583Z,99536.88
2022-09-27T07:26:15.761Z,99545.56
2022-09-27T07:28:44.983Z,99534.13
2022-09-27T07:31:13.778Z,99533.13
2022-09-27T07:33:43.767Z,99542.81
2022-09-27T07:36:13.648Z,99548.06
2022-09-27T07:38:41.857Z,99545.38
2022-09-27T07:41:13.201Z,99542.66
2022-09-27T07:43:41.561Z,99548.63
2022-09-27T07:46:10.757Z,99541.59
2022-09-27T07:48:38.924Z,99539.72
2022-09-27T07:51:10.778Z,99546.63
2022-09-27T07:53:39.645Z,99551.75
2022-09-27T07:56:08.161Z,99556.81
2022-09-27T07:58:36.274Z,99553.31
2022-09-27T08:01:04.535Z,99552.31
2022-09-27T08:03:32.701Z,99556.50
2022-09-27T08:06:04.545Z,99555.53
2022-09-27T08:08:34.095Z,99558.91
2022-09-27T08:11:02.343Z,99562.28
2022-09-27T08:13:30.702Z,99563.06
2022-09-27T08:16:03.684Z,99561.28
2022-09-27T08:18:32.002Z,99567.16
2022-09-27T08:21:01.457Z,99562.53
2022-09-27T08:23:30.823Z,99560.56
2022-09-27T08:26:00.505Z,99563.19
2022-09-27T08:28:29.128Z,99572.66
2022-09-27T08:30:59.990Z,99570.81
2022-09-27T08:33:32.355Z,99573.34
2022-09-27T08:36:01.762Z,99584.41
2022-09-27T08:38:29.940Z,99571.88
2022-09-27T08:41:05.695Z,99575.97
2022-09-27T08:43:42.231Z,99562.56
2022-09-27T08:46:26.303Z,99569.47
2022-09-27T08:49:01.749Z,99565.00
2022-09-27T08:51:32.155Z,99572.66
2022-09-27T08:54:06.748Z,99571.66
2022-09-27T08:56:37.011Z,99570.13
2022-09-27T08:59:13.737Z,99570.06
2022-09-27T09:01:42.323Z,99566.31
2022-09-27T09:04:12.163Z,99570.59
2022-09-27T09:06:49.718Z,99565.22
2022-09-27T09:09:30.808Z,99575.50
2022-09-27T09:12:32.130Z,99576.56
2022-09-27T09:15:14.755Z,99589.91
2022-09-27T09:18:03.449Z,99595.06
2022-09-27T09:20:50.778Z,99591.28
2022-09-27T09:23:53.035Z,99587.13
2022-09-27T09:26:34.138Z,99587.31
2022-09-27T09:29:35.829Z,99576.09
2022-09-27T09:32:21.917Z,99583.13
2022-09-27T09:34:57.943Z,99579.06
2022-09-27T09:37:41.006Z,99585.69
2022-09-27T09:40:22.498Z,99587.00
2022-09-27T09:42:58.670Z,99578.69
2022-09-27T09:45:32.157Z,99589.88
2022-09-27T09:48:09.829Z,99584.53
2022-09-27T09:50:46.452Z,99585.53
2022-09-27T09:53:19.600Z,99592.28
2022-09-27T09:55:54.382Z,99583.16
2022-09-27T09:58:27.758Z,99587.84
2022-09-27T10:01:02.527Z,99590.84
2022-09-27T10:03:30.727Z,99593.22
2022-09-27T10:05:58.983Z,99596.94
2022-09-27T10:08:27.189Z,99606.19
2022-09-27T10:10:55.288Z,99595.59
2022-09-27T10:13:23.870Z,99594.09
2022-09-27T10:16:03.409Z,99586.34
2022-09-27T10:18:33.256Z,99584.59
2022-09-27T10:21:05.974Z,99580.31
2022-09-27T10:23:34.165Z,99585.91
2022-09-27T10:26:05.496Z,99590.00
2022-09-27T10:28:37.418Z,99596.56
2022-09-27T10:31:09.587Z,99609.38
2022-09-27T10:33:41.517Z,99615.34
2022-09-27T10:36:26.619Z,99602.22
2022-09-27T10:38:56.297Z,99607.78
2022-09-27T10:41:28.963Z,99607.13
2022-09-27T10:43:57.132Z,99595.78
2022-09-27T10:46:31.611Z,99604.66
2022-09-27T10:49:20.225Z,99598.28
2022-09-27T10:51:52.686Z,99601.47
2022-09-27T10:54:24.181Z,99609.25
2022-09-27T10:57:04.273Z,99601.16
2022-09-27T10:59:36.170Z,99603.66
2022-09-27T11:02:07.134Z,99607.94
2022-09-27T11:04:38.572Z,99602.59
2022-09-27T11:07:20.039Z,99606.94
2022-09-27T11:09:56.067Z,99598.13
2022-09-27T11:12:25.281Z,99605.00
2022-09-27T11:14:58.417Z,99603.69
2022-09-27T11:17:39.578Z,99601.81
2022-09-27T11:20:18.839Z,99610.28
2022-09-27T11:23:24.321Z,99604.97
2022-09-27T11:26:14.710Z,99597.50
2022-09-27T11:28:53.874Z,99605.94
2022-09-27T11:31:44.050Z,99600.25
2022-09-27T11:34:54.178Z,99590.59
2022-09-27T11:37:33.951Z,99585.44
2022-09-27T11:40:23.543Z,99593.59
2022-09-27T11:43:11.791Z,99583.03
2022-09-27T11:46:14.323Z,99585.19
2022-09-27T11:49:14.683Z,99586.28
2022-09-27T11:52:03.422Z,99590.38
2022-09-27T11:54:53.303Z,99584.00
2022-09-27T11:57:28.746Z,99587.66
2022-09-27T12:00:23.769Z,99588.72
2022-09-27T12:03:39.217Z,99582.69
2022-09-27T12:06:13.317Z,99585.63
2022-09-27T12:08:58.895Z,99588.44
2022-09-27T12:11:32.533Z,99592.13
2022-09-27T12:14:05.369Z,99591.44
2022-09-27T12:16:35.018Z,99595.66
2022-09-27T12:19:04.505Z,99589.53
2022-09-27T12:21:34.338Z,99603.50
2022-09-27T12:24:05.516Z,99606.97
2022-09-27T12:26:40.006Z,99607.66
2022-09-27T12:29:16.562Z,99611.81
2022-09-27T12:31:51.788Z,99607.81
2022-09-27T12:34:24.720Z,99614.75
2022-09-27T12:37:00.565Z,99602.28
2022-09-27T12:39:39.992Z,99603.88
2022-09-27T12:42:17.941Z,99602.56
2022-09-27T12:44:50.524Z,99602.84
2022-09-27T12:47:40.100Z,99604.22
2022-09-27T12:50:21.582Z,99601.66
2022-09-27T12:52:57.295Z,99601.75
2022-09-27T12:56:12.043Z,99598.34
2022-09-27T12:59:13.520Z,99599.06
2022-09-27T13:02:12.014Z,99608.63
2022-09-27T13:05:00.551Z,99607.81
2022-09-27T13:07:47.020Z,99612.22
2022-09-27T13:10:45.219Z,99608.50
2022-09-27T13:13:15.558Z,99602.91
2022-09-27T13:15:46.513Z,99612.81
2022-09-27T13:18:48.872Z,99609.69
2022-09-27T13:21:59.531Z,99610.72
2022-09-27T13:24:49.785Z,99611.81
2022-09-27T13:27:41.724Z,99606.78
2022-09-27T13:30:45.260Z,99613.88
2022-09-27T13:33:47.256Z,99600.53
2022-09-27T13:36:33.596Z,99618.63
2022-09-27T13:39:22.562Z,99619.06
2022-09-27T13:42:10.756Z,99619.28
2022-09-27T13:45:05.714Z,99624.75
2022-09-27T13:47:40.427Z,99615.44
2022-09-27T13:50:23.785Z,99615.91
2022-09-27T13:53:04.054Z,99618.88
2022-09-27T13:55:46.709Z,99621.22
2022-09-27T13:58:36.904Z,99620.31
2022-09-27T14:01:15.347Z,99617.44
2022-09-27T14:03:46.314Z,99617.00
2022-09-27T14:06:20.347Z,99616.53
2022-09-27T14:08:52.181Z,99615.09
2022-09-27T14:11:27.344Z,99623.47
2022-09-27T14:13:56.256Z,99630.84
2022-09-27T14:16:24.651Z,99638.31
2022-09-27T14:18:58.295Z,99636.66
2022-09-27T14:21:34.410Z,99653.75
2022-09-27T14:24:26.849Z,99640.97
2022-09-27T14:27:12.967Z,99650.50
2022-09-27T14:29:46.921Z,99647.53
2022-09-27T14:32:17.519Z,99649.81
2022-09-27T14:34:46.572Z,99651.97
2022-09-27T14:37:24.226Z,99650.50
2022-09-27T14:39:58.447Z,99655.25
2022-09-27T14:42:32.890Z,99662.53
2022-09-27T14:45:07.576Z,99659.09
2022-09-27T14:47:35.713Z,99653.81
2022-09-27T14:50:19.987Z,99656.34
2022-09-27T14:52:49.837Z,99661.19
2022-09-27T14:55:21.879Z,99659.13
2022-09-27T14:57:54.941Z,99662.41
2022-09-27T15:00:26.300Z,99658.84
2022-09-27T15:02:56.601Z,99658.72
2022-09-27T15:05:28.121Z,99661.16
2022-09-27T15:07:58.200Z,99656.59
2022-09-27T15:10:31.814Z,99661.81
2022-09-27T15:13:03.501Z,99650.44
2022-09-27T15:15:34.798Z,99654.66
2022-09-27T15:18:05.289Z,99659.03
2022-09-27T15:20:36.002Z,99650.25
2022-09-27T15:23:06.224Z,99654.66
2022-09-27T15:25:38.136Z,99648.47
2022-09-27T15:28:17.640Z,99643.16
2022-09-27T15:30:58.278Z,99649.25
2022-09-27T15:33:31.607Z,99665.03
2022-09-27T15:36:02.673Z,99653.69
2022-09-27T15:38:32.624Z,99649.25
2022-09-27T15:41:14.085Z,99649.25
2022-09-27T15:43:55.883Z,99648.34
2022-09-27T15:46:37.324Z,99657.06
2022-09-27T15:49:34.459Z,99647.34
2022-09-27T15:52:04.966Z,99648.22
2022-09-27T15:54:35.745Z,99646.56
2022-09-27T15:57:06.915Z,99646.63
2022-09-27T15:59:37.700Z,99650.16
2022-09-27T16:02:16.091Z,99658.13
2022-09-27T16:04:45.306Z,99655.63
2022-09-27T16:07:15.948Z,99657.41
2022-09-27T16:09:45.388Z,99655.78
2022-09-27T16:12:13.507Z,99650.56
2022-09-27T16:14:43.020Z,99659.41
2022-09-27T16:17:11.881Z,99664.75
2022-09-27T16:19:40.228Z,99663.06
2022-09-27T16:22:08.831Z,99654.31
2022-09-27T16:24:37.216Z,99659.56
2022-09-27T16:27:05.462Z,99662.13
2022-09-27T16:29:33.971Z,99660.50
2022-09-27T16:32:03.949Z,99656.16
2022-09-27T16:34:32.213Z,99659.69
2022-09-27T16:37:04.840Z,99656.22
2022-09-27T16:39:33.238Z,99656.31
2022-09-27T16:42:04.952Z,99653.81
2022-09-27T16:44:34.130Z,99657.44
2022-09-27T16:47:07.436Z,99661.03
2022-09-27T16:49:53.271Z,99655.00
2022-09-27T16:52:21.957Z,99656.88
2022-09-27T16:54:50.054Z,99652.56
2022-09-27T16:57:18.207Z,99658.78
2022-09-27T16:59:47.861Z,99656.31
2022-09-27T17:02:18.076Z,99655.56
2022-09-27T17:04:46.354Z,99649.56
2022-09-27T17:07:14.494Z,99652.28
2022-09-27T17:09:42.762Z,99654.94
2022-09-27T17:12:12.154Z,99658.50
2022-09-27T17:14:40.488Z,99657.63
2022-09-27T17:17:09.185Z,99650.69
2022-09-27T17:19:39.182Z,99643.75
2022-09-27T17:22:08.760Z,99648.16
2022-09-27T17:24:37.209Z,99643.84
2022-09-27T17:27:05.441Z,99650.88
2022-09-27T17:29:33.619Z,99650.97
2022-09-27T17:32:02.059Z,99644.91
2022-09-27T17:34:30.239Z,99644.97
2022-09-27T17:37:00.804Z,99649.38
2022-09-27T17:39:28.978Z,99650.38
2022-09-27T17:41:58.417Z,99655.69
2022-09-27T17:44:27.066Z,99658.41
2022-09-27T17:47:09.440Z,99659.34
2022-09-27T17:49:55.286Z,99660.34
2022-09-27T17:52:25.673Z,99662.19
2022-09-27T17:54:55.526Z,99664.03
2022-09-27T17:57:23.932Z,99662.38
2022-09-27T17:59:53.527Z,99665.06
2022-09-27T18:02:21.918Z,99661.66
2022-09-27T18:04:50.019Z,99662.56
2022-09-27T18:07:18.416Z,99653.88
2022-09-27T18:09:47.946Z,99658.25
2022-09-27T18:12:16.759Z,99653.91
2022-09-27T18:14:45.793Z,99654.75
2022-09-27T18:17:14.274Z,99660.91
2022-09-27T18:19:42.427Z,99653.91
2022-09-27T18:22:10.742Z,99657.44
2022-09-27T18:24:38.942Z,99655.69
2022-09-27T18:27:08.468Z,99658.31
2022-09-27T18:29:36.574Z,99659.22
2022-09-27T18:32:04.778Z,99661.81
2022-09-27T18:34:32.993Z,99660.06
2022-09-27T18:37:01.074Z,99655.69
2022-09-27T18:39:29.197Z,99647.91
2022-09-27T18:41:57.633Z,99647.84
2022-09-27T18:44:27.347Z,99645.28
2022-09-27T18:46:55.624Z,99648.75
2022-09-27T18:49:27.718Z,99654.00
2022-09-27T18:51:57.667Z,99649.66
2022-09-27T18:54:25.773Z,99654.97
2022-09-27T18:56:53.929Z,99655.81
2022-09-27T18:59:23.793Z,99661.06
2022-09-27T19:01:53.541Z,99654.97
2022-09-27T19:04:24.692Z,99652.41
2022-09-27T19:06:53.195Z,99653.28
2022-09-27T19:09:21.595Z,99650.72
2022-09-27T19:11:51.929Z,99644.63
2022-09-27T19:14:22.420Z,99647.28
2022-09-27T19:16:52.550Z,99645.56
2022-09-27T19:19:22.184Z,99645.56
2022-09-27T19:21:50.696Z,99649.09
2022-09-27T19:24:19.179Z,99652.63
2022-09-27T19:26:50.513Z,99651.78
2022-09-27T19:29:18.876Z,99650.91
2022-09-27T19:31:47.395Z,99647.47
2022-09-27T19:34:17.197Z,99647.47
2022-09-27T19:36:45.466Z,99653.59
2022-09-27T19:39:13.617Z,99657.94
2022-09-27T19:41:41.785Z,99652.75
2022-09-27T19:44:10.267Z,99651.91
2022-09-27T19:46:39.197Z,99655.38
2022-09-27T19:49:07.668Z,99660.63
2022-09-27T19:51:37.640Z,99660.63
2022-09-27T19:54:06.267Z,99661.53
2022-09-27T19:56:34.877Z,99658.00
2022-09-27T19:59:07.112Z,99654.53
2022-09-27T20:01:38.027Z,99655.38
2022-09-27T20:04:06.256Z,99657.16
2022-09-27T20:06:35.894Z,99656.25
2022-09-27T20:09:04.166Z,99663.22
2022-09-27T20:11:34.168Z,99656.28
2022-09-27T20:14:02.489Z,99658.84
2022-09-27T20:16:30.706Z,99658.81
2022-09-27T20:19:00.878Z,99650.09
2022-09-27T20:21:32.606Z,99652.69
2022-09-27T20:24:04.453Z,99648.31
2022-09-27T20:26:34.549Z,99648.31
2022-09-27T20:29:05.217Z,99647.38
2022-09-27T20:31:37.016Z,99647.38
2022-09-27T20:34:06.875Z,99647.34
2022-09-27T20:36:37.366Z,99639.47
2022-09-27T20:39:09.781Z,99649.03
2022-09-27T20:41:40.826Z,99640.31
2022-09-27T20:44:11.330Z,99639.41
2022-09-27T20:46:41.497Z,99639.41
2022-09-27T20:49:11.744Z,99633.28
2022-09-27T20:51:41.765Z,99633.25
2022-09-27T20:54:14.416Z,99631.50
2022-09-27T20:56:44.566Z,99623.66
2022-09-27T20:59:17.796Z,99627.97
2022-09-27T21:01:48.102Z,99629.72
2022-09-27T21:04:18.469Z,99631.44
2022-09-27T21:06:47.325Z,99629.66
2022-09-27T21:09:19.000Z,99622.72
2022-09-27T21:11:47.996Z,99620.97
2022-09-27T21:14:16.438Z,99621.94
2022-09-27T21:16:45.051Z,99633.19
2022-09-27T21:19:13.553Z,99627.97
2022-09-27T21:21:41.967Z,99624.50
2022-09-27T21:24:10.117Z,99623.66
2022-09-27T21:26:39.631Z,99619.34
2022-09-27T21:29:11.251Z,99623.72
2022-09-27T21:31:39.827Z,99618.56
2022-09-27T21:34:08.262Z,99612.47
2022-09-27T21:36:39.117Z,99614.28
2022-09-27T21:39:09.702Z,99613.44
2022-09-27T21:41:39.829Z,99617.84
2022-09-27T21:44:08.863Z,99611.81
2022-09-27T21:46:41.821Z,99605.81
2022-09-27T21:49:11.033Z,99611.09
2022-09-27T21:51:41.469Z,99612.03
2022-09-27T21:54:13.962Z,99618.22
2022-09-27T21:56:44.992Z,99609.53
2022-09-27T21:59:16.038Z,99614.88
2022-09-27T22:01:45.805Z,99616.66
2022-09-27T22:04:14.477Z,99616.75
2022-09-27T22:06:42.960Z,99617.66
2022-09-27T22:09:15.460Z,99614.22
2022-09-27T22:11:47.209Z,99612.56
2022-09-27T22:14:16.345Z,99617.84
2022-09-27T22:16:46.704Z,99615.28
2022-09-27T22:19:16.830Z,99607.53
2022-09-27T22:21:45.575Z,99610.22
2022-09-27T22:24:17.072Z,99617.25
2022-09-27T22:26:50.667Z,99615.56
2022-09-27T22:29:19.337Z,99612.13
2022-09-27T22:31:47.894Z,99606.09
2022-09-27T22:34:28.781Z,99613.13
2022-09-27T22:36:58.671Z,99606.19
2022-09-27T22:39:26.779Z,99608.84
2022-09-27T22:41:56.300Z,99607.13
2022-09-27T22:44:24.455Z,99600.22
2022-09-27T22:46:52.833Z,99604.59
2022-09-27T22:49:20.965Z,99604.63
2022-09-27T22:51:50.375Z,99600.28
2022-09-27T22:54:18.747Z,99597.72
2022-09-27T22:56:47.004Z,99597.72
2022-09-27T22:59:17.812Z,99595.97
2022-09-27T23:01:46.040Z,99593.38
2022-09-27T23:04:14.699Z,99588.16
2022-09-27T23:06:43.369Z,99577.72
2022-09-27T23:09:12.287Z,99579.50
2022-09-27T23:11:40.440Z,99584.72
2022-09-27T23:14:09.791Z,99584.72
2022-09-27T23:16:39.623Z,99588.19
2022-09-27T23:19:08.222Z,99579.53
2022-09-27T23:21:36.436Z,99583.91
2022-09-27T23:24:04.706Z,99583.91
2022-09-27T23:26:32.885Z,99581.34
2022-09-27T23:29:03.325Z,99575.25
2022-09-27T23:31:33.567Z,99583.09
2022-09-27T23:34:05.888Z,99587.44
2022-09-27T23:36:35.493Z,99581.38
2022-09-27T23:39:03.567Z,99577.91
2022-09-27T23:41:31.734Z,99571.84
2022-09-27T23:43:59.771Z,99568.38
2022-09-27T23:46:28.727Z,99567.50
2022-09-27T23:48:58.902Z,99569.22
2022-09-27T23:51:28.475Z,99563.16
2022-09-27T23:53:57.115Z,99564.00
2022-09-27T23:56:25.885Z,99564.00
2022-09-27T23:58:54.046Z,99556.19
